Flight Track Log - Related Links

Times and Time Zones

All times are in EDT time to prevent confusion due to time zone crossing. See the SWA3497 flight status page for this flight to view local times or setup timezone preferences in your user account.

Time Position Orientation Groundspeed Altitude Reporting Facility
EDT Latitude Longitude Course Direction KTS MPH feet Rate Location/Type
Mon 09:02:25 AM 28.4167 -81.3000 221° Southwest 159 183 600  Level Orlando TRACON
Mon 09:04:01 AM 28.3500 -81.3667 221° Southwest 240 276 4,200 2,760 Climbing Orlando TRACON
Mon 09:04:55 AM 28.3500 -81.4333 270° West 258 297 7,500 3,286 Climbing Orlando TRACON
Mon 09:06:07 AM 28.4333 -81.4667 341° North 320 368 11,100 3,200 Climbing Orlando TRACON
Mon 09:06:55 AM 28.5167 -81.4500 10° North 348 400 13,900 3,016 Climbing Orlando TRACON
Mon 09:09:18 AM 28.7511 -81.4314 North 371 427 20,700 2,749 Climbing Jacksonville Center
Mon 09:10:18 AM 28.8614 -81.4203 North 376 433 23,200 2,400 Climbing Jacksonville Center
Mon 09:11:18 AM 28.9761 -81.4117 North 387 445 25,500 2,100 Climbing Jacksonville Center
Mon 09:12:18 AM 29.0953 -81.4239 355° North 405 466 27,400 1,700 Climbing Jacksonville Center
Mon 09:13:18 AM 29.1894 -81.4439 349° North 420 483 28,900 1,700 Climbing Jacksonville Center
Mon 09:14:18 AM 29.3339 -81.4942 343° North 437 503 30,800 1,850 Climbing Jacksonville Center
Mon 09:15:18 AM 29.4617 -81.5306 346° North 456 525 32,600 1,950 Climbing Jacksonville Center
Mon 09:16:18 AM 29.5833 -81.5694 344° North 456 525 34,700 1,850 Climbing Jacksonville Center
Mon 09:17:18 AM 29.7047 -81.6133 343° North 456 525 36,300 1,550 Climbing Jacksonville Center
Mon 09:18:18 AM 29.8264 -81.6547 344° North 456 525 37,800 1,350 Climbing Jacksonville Center
Mon 09:19:18 AM 29.9475 -81.6844 348° North 456 525 39,000 1,300 Climbing Jacksonville Center
Mon 09:20:18 AM 30.0683 -81.6564 11° North 435 501 40,400 1,000 Climbing Jacksonville Center
Mon 09:21:18 AM 30.1789 -81.6311 11° North 441 507 41,000 300 Climbing Jacksonville Center
Mon 09:22:18 AM 30.2997 -81.6006 12° North 446 513 41,000  Level Jacksonville Center
Mon 09:23:18 AM 30.4225 -81.5772 North 446 513 41,000  Level Jacksonville Center
Mon 09:24:18 AM 30.5433 -81.5514 10° North 446 513 41,000  Level Jacksonville Center
Mon 09:25:18 AM 30.6642 -81.5281 North 446 513 41,000  Level Jacksonville Center
Mon 09:26:18 AM 30.7850 -81.5022 10° North 446 513 41,000  Level Jacksonville Center
Mon 09:27:18 AM 30.9058 -81.4761 11° North 446 513 41,000  Level Jacksonville Center
Mon 09:28:18 AM 31.0267 -81.4500 10° North 446 513 41,000  Level Jacksonville Center
Mon 09:29:19 AM 31.1475 -81.4217 11° North 446 513 41,000  Level Jacksonville Center
Mon 09:30:18 AM 31.2703 -81.3978 North 446 513 41,000  Level Jacksonville Center
Mon 09:31:18 AM 31.4014 -81.3617 13° North 446 513 41,000  Level Jacksonville Center
Mon 09:32:18 AM 31.5119 -81.3403 North 446 513 41,000  Level Jacksonville Center
Mon 09:33:18 AM 31.6453 -81.3111 11° North 446 513 41,000  Level Jacksonville Center
Mon 09:34:18 AM 31.7681 -81.2847 10° North 446 513 41,000  Level Jacksonville Center
Mon 09:35:18 AM 31.8742 -81.2533 14° North 441 507 41,000  Level Jacksonville Center
Mon 09:36:18 AM 31.9772 -81.1658 36° Northeast 426 490 41,000  Level Jacksonville Center
Mon 09:37:18 AM 32.0678 -81.0686 42° Northeast 431 496 41,000  Level Jacksonville Center
Mon 09:38:18 AM 32.1747 -80.9561 42° Northeast 451 519 41,000  Level Jacksonville Center
Mon 09:39:18 AM 32.2631 -80.8633 42° Northeast 437 503 41,000  Level Jacksonville Center
Mon 09:40:18 AM 32.3450 -80.7753 42° Northeast 431 496 41,000  Level Jacksonville Center
Mon 09:41:18 AM 32.4331 -80.6772 43° Northeast 431 496 41,000  Level Jacksonville Center
Mon 09:42:18 AM 32.5253 -80.5789 42° Northeast 436 502 41,000  Level Jacksonville Center
Mon 09:44:18 AM 32.7075 -80.3817 42° Northeast 436 502 41,000  Level Jacksonville Center
Mon 09:45:18 AM 32.8075 -80.2703 43° Northeast 436 502 41,000  Level Jacksonville Center
Mon 09:46:18 AM 32.8969 -80.1686 44° Northeast 436 502 41,000  Level Jacksonville Center
Mon 09:47:18 AM 32.9908 -80.0669 42° Northeast 449 517 41,000  Level Jacksonville Center
Mon 09:48:18 AM 33.0847 -79.9672 42° Northeast 449 517 41,000  Level Jacksonville Center
Mon 09:49:18 AM 33.1783 -79.8672 42° Northeast 449 517 41,000  Level Jacksonville Center
Mon 09:50:18 AM 33.2678 -79.7700 42° Northeast 449 517 41,000  Level Jacksonville Center
Mon 09:51:18 AM 33.3592 -79.6697 42° Northeast 449 517 41,000  Level Jacksonville Center
Mon 09:52:18 AM 33.4483 -79.5694 43° Northeast 444 511 41,000  Level Jacksonville Center
Mon 09:53:18 AM 33.5375 -79.4714 42° Northeast 439 505 41,000  Level Jacksonville Center
Mon 09:54:18 AM 33.6286 -79.3706 43° Northeast 439 505 41,000  Level Jacksonville Center
Mon 09:55:18 AM 33.7156 -79.2722 43° Northeast 434 499 41,000  Level Jacksonville Center
Mon 09:56:18 AM 33.8067 -79.1711 43° Northeast 434 499 41,000  Level Jacksonville Center
Mon 09:58:35 AM 34.0122 -78.9464 42° Northeast 453 521 41,000  Level Washington Center
Mon 09:59:36 AM 34.1086 -78.8500 40° Northeast 448 516 41,000  Level Washington Center
Mon 10:00:34 AM 34.2072 -78.7533 39° Northeast 448 516 41,000  Level Washington Center
Mon 10:01:34 AM 34.3017 -78.6564 40° Northeast 443 510 41,000  Level Washington Center
Mon 10:02:35 AM 34.3978 -78.5619 39° Northeast 443 510 41,000  Level Washington Center
Mon 10:03:36 AM 34.4942 -78.4647 40° Northeast 438 504 41,000  Level Washington Center
Mon 10:04:34 AM 34.5983 -78.3825 33° Northeast 444 511 41,000  Level Washington Center
Mon 10:05:34 AM 34.7006 -78.2950 35° Northeast 444 511 41,000  Level Washington Center
Mon 10:06:35 AM 34.8067 -78.2125 33° Northeast 449 517 41,000  Level Washington Center
Mon 10:07:33 AM 34.9086 -78.1247 35° Northeast 443 510 41,000  Level Washington Center
Mon 10:08:34 AM 35.0106 -78.0417 34° Northeast 443 510 41,000  Level Washington Center
Mon 10:09:35 AM 35.1167 -77.9536 34° Northeast 449 517 41,000  Level Washington Center
Mon 10:10:35 AM 35.2206 -77.8725 33° Northeast 449 517 41,000  Level Washington Center
Mon 10:11:34 AM 35.3264 -77.7839 34° Northeast 449 517 41,000  Level Washington Center
Mon 10:12:34 AM 35.4322 -77.7028 32° Northeast 449 517 41,000  Level Washington Center
Mon 10:13:34 AM 35.5339 -77.6186 34° Northeast 444 511 41,000  Level Washington Center
Mon 10:14:35 AM 35.6375 -77.5319 34° Northeast 444 511 41,000  Level Washington Center
Mon 10:15:36 AM 35.7433 -77.4447 34° Northeast 449 517 41,000  Level Washington Center
Mon 10:16:36 AM 35.8447 -77.3600 34° Northeast 443 510 41,000  Level Washington Center
Mon 10:17:34 AM 35.9503 -77.2753 33° Northeast 443 510 41,000  Level Washington Center
Mon 10:18:34 AM 36.0556 -77.1900 33° Northeast 443 510 41,000  Level Washington Center
Mon 10:19:36 AM 36.1422 -77.1119 36° Northeast 438 504 41,000  Level Washington Center
Mon 10:20:34 AM 36.2456 -77.0264 34° Northeast 438 504 41,000  Level Washington Center
Mon 10:21:35 AM 36.3508 -76.9408 33° Northeast 443 510 41,000  Level Washington Center
Mon 10:22:36 AM 36.4625 -76.8419 35° Northeast 443 510 41,000  Level Washington Center
Mon 10:23:34 AM 36.5592 -76.7658 32° Northeast 448 516 41,000  Level Washington Center
Mon 10:24:35 AM 36.6644 -76.6769 34° Northeast 448 516 41,000  Level Washington Center
Mon 10:25:36 AM 36.7778 -76.5747 36° Northeast 448 516 41,000  Level Washington Center
Mon 10:26:34 AM 36.8808 -76.4850 35° Northeast 448 516 41,000  Level Washington Center
Mon 10:27:34 AM 36.9858 -76.3981 33° Northeast 448 516 41,000  Level Washington Center
Mon 10:28:35 AM 37.0803 -76.3156 35° Northeast 448 516 41,000  Level Washington Center
Mon 10:29:36 AM 37.1850 -76.2228 35° Northeast 448 516 41,000  Level Washington Center
Mon 10:30:34 AM 37.2917 -76.1428 31° Northeast 448 516 41,000  Level Washington Center
Mon 10:31:34 AM 37.4006 -76.0467 35° Northeast 448 516 41,000  Level Washington Center
Mon 10:32:35 AM 37.5031 -75.9583 34° Northeast 443 510 41,000  Level Washington Center
Mon 10:33:35 AM 37.6056 -75.8697 34° Northeast 443 510 41,000  Level Washington Center
Mon 10:34:36 AM 37.7081 -75.7781 35° Northeast 443 510 41,000  Level Washington Center
Mon 10:35:34 AM 37.8103 -75.6917 34° Northeast 443 510 41,000  Level Washington Center
Mon 10:36:34 AM 37.9103 -75.5997 36° Northeast 443 510 41,000  Level Washington Center
Mon 10:37:35 AM 38.0106 -75.5100 35° Northeast 448 516 41,000  Level Washington Center
Mon 10:38:36 AM 38.1103 -75.4150 37° Northeast 448 516 41,000  Level Washington Center
Mon 10:39:34 AM 38.2083 -75.3169 38° Northeast 448 516 41,000  Level Washington Center
Mon 10:40:35 AM 38.3017 -75.2053 43° Northeast 448 516 41,000  Level Washington Center
Mon 10:41:36 AM 38.4014 -75.1094 37° Northeast 448 516 41,000  Level Washington Center
Mon 10:42:36 AM 38.5011 -75.0081 38° Northeast 448 516 41,000  Level Washington Center
Mon 10:43:34 AM 38.5944 -74.9036 41° Northeast 448 516 41,000  Level Washington Center
Mon 10:44:36 AM 38.6958 -74.8044 37° Northeast 453 521 41,000  Level Washington Center
Mon 10:45:33 AM 38.7911 -74.7022 40° Northeast 453 521 41,000  Level Washington Center
Mon 10:46:34 AM 38.8819 -74.5917 43° Northeast 447 514 41,000  Level Washington Center
Mon 10:47:35 AM 38.9769 -74.4889 40° Northeast 447 514 41,000  Level Washington Center
Mon 10:48:36 AM 39.0758 -74.3858 39° Northeast 452 520 41,000  Level Washington Center
Mon 10:49:36 AM 39.1750 -74.2850 38° Northeast 452 520 41,000  Level Washington Center
Mon 10:50:33 AM 39.2697 -74.1789 41° Northeast 452 520 41,000  Level Washington Center
Mon 10:51:34 AM 39.3664 -74.0747 40° Northeast 452 520 41,000 -98 Level Washington Center
Mon 10:52:35 AM 39.4669 -73.9678 39° Northeast 452 520 40,800 -662 Descending Washington Center
Mon 10:54:08 AM 39.6208 -73.7947 41° Northeast 452 520 39,300 -706 Descending Boston Center
Mon 10:55:08 AM 39.7200 -73.6833 41° Northeast 458 527 39,000 -250 Descending Boston Center
Mon 10:56:08 AM 39.8192 -73.5719 41° Northeast 464 534 38,800 -600 Descending Boston Center
Mon 10:57:08 AM 39.9181 -73.4625 40° Northeast 464 534 37,800 -950 Descending Boston Center
Mon 10:58:08 AM 40.0192 -73.3478 41° Northeast 464 534 36,900 -1,250 Descending Boston Center
Mon 10:59:08 AM 40.1219 -73.2325 41° Northeast 464 534 35,300 -1,400 Descending Boston Center
Mon 11:00:08 AM 40.2206 -73.1194 41° Northeast 469 540 34,100 -1,700 Descending Boston Center
Mon 11:01:08 AM 40.3192 -73.0061 41° Northeast 469 540 31,900 -2,000 Descending Boston Center
Mon 11:02:08 AM 40.4178 -72.8953 41° Northeast 464 534 30,100 -1,800 Descending Boston Center
Mon 11:03:08 AM 40.5139 -72.7867 41° Northeast 464 534 28,300 -2,400 Descending Boston Center
Mon 11:04:08 AM 40.6039 -72.6669 45° Northeast 459 528 25,300 -2,650 Descending Boston Center
Mon 11:05:08 AM 40.6831 -72.5331 52° Northeast 459 528 23,000 -2,400 Descending Boston Center
Mon 11:06:08 AM 40.7603 -72.4128 50° Northeast 444 511 20,500 -2,250 Descending Boston Center
Mon 11:07:08 AM 40.8247 -72.2975 54° Northeast 433 498 18,500 -2,160 Descending Boston Center
Mon 11:07:48 AM 40.8767 -72.2178 49° Northeast 410 472 16,900 -2,340 Descending Boston Center
Mon 11:08:48 AM 40.9453 -72.1075 51° Northeast 382 440 14,600 -2,243 Descending Boston Center
Mon 11:09:43 AM 41.0033 -72.0028 54° Northeast 378 435 12,600 -1,843 Descending Boston Center
Mon 11:11:08 AM 41.0964 -71.8561 50° Northeast 359 413 10,300 -1,324 Descending Boston Center
Mon 11:12:08 AM 41.1500 -71.7675 51° Northeast 323 372 9,400 -804 Descending Boston Center
Mon 11:12:45 AM 41.1789 -71.7175 52° Northeast 301 346 9,000 -787 Descending Boston Center
Mon 11:14:10 AM 41.2889 -71.6528 24° Northeast 299 344 7,800 -984 Descending Boston Center
Mon 11:14:53 AM 41.3408 -71.6411 10° North 297 342 6,900 -1,398 Descending Boston Center
Mon 11:15:53 AM 41.4178 -71.6153 14° North 286 329 5,400 -1,636 Descending Boston Center
Mon 11:16:54 AM 41.5011 -71.5919 12° North 275 316 3,600 -1,082 Descending Boston Center
Mon 11:17:55 AM 41.5675 -71.5606 19° North 235 270 3,200 -639 Descending Boston Center
Mon 11:18:56 AM 41.6150 -71.5183 34° Northeast 202 232 2,300 -836 Descending Boston Center
Mon 11:19:57 AM 41.6522 -71.4872 32° Northeast 141 162 1,500 -738 Descending Boston Center
Mon 11:20:58 AM 41.6833 -71.4617 32° Northeast 134 154 800 -689 Descending Boston Center

Login

Don't have an account? Register now (free) for customized features, flight alerts, and more!